createdAt,value
2023-05-19T00:01:22.618Z,14.70
2023-05-19T00:03:52.785Z,14.60
2023-05-19T00:06:29.434Z,14.60
2023-05-19T00:09:04.967Z,14.60
2023-05-19T00:11:32.530Z,14.60
2023-05-19T00:14:00.720Z,14.50
2023-05-19T00:16:29.723Z,14.50
2023-05-19T00:19:01.580Z,14.50
2023-05-19T00:21:29.790Z,14.50
2023-05-19T00:23:56.863Z,14.40
2023-05-19T00:26:25.123Z,14.40
2023-05-19T00:28:59.435Z,14.30
2023-05-19T00:31:26.627Z,14.30
2023-05-19T00:33:53.833Z,14.20
2023-05-19T00:36:21.184Z,14.20
2023-05-19T00:38:48.291Z,14.10
2023-05-19T00:41:15.460Z,14.10
2023-05-19T00:43:42.545Z,14.00
2023-05-19T00:46:11.128Z,14.00
2023-05-19T00:48:38.249Z,13.90
2023-05-19T00:51:06.657Z,13.90
2023-05-19T00:53:34.817Z,13.80
2023-05-19T00:56:03.213Z,13.80
2023-05-19T00:58:32.669Z,13.80
2023-05-19T01:01:04.777Z,13.80
2023-05-19T01:03:35.632Z,13.80
2023-05-19T01:06:07.362Z,13.90
2023-05-19T01:08:36.389Z,13.90
2023-05-19T01:11:07.993Z,13.90
2023-05-19T01:13:36.469Z,13.90
2023-05-19T01:16:27.049Z,13.90
2023-05-19T01:19:02.056Z,13.90
2023-05-19T01:21:50.431Z,13.90
2023-05-19T01:24:48.140Z,13.90
2023-05-19T01:27:15.279Z,13.90
2023-05-19T01:29:42.284Z,13.80
2023-05-19T01:32:11.952Z,13.80
2023-05-19T01:34:43.772Z,13.80
2023-05-19T01:37:13.636Z,13.70
2023-05-19T01:39:42.092Z,13.70
2023-05-19T01:42:09.580Z,13.70
2023-05-19T01:44:37.819Z,13.60
2023-05-19T01:47:05.492Z,13.60
2023-05-19T01:49:32.580Z,13.60
2023-05-19T01:51:59.661Z,13.50
2023-05-19T01:54:27.221Z,13.50
2023-05-19T01:57:20.019Z,13.50
2023-05-19T02:00:13.146Z,13.40
2023-05-19T02:03:08.146Z,13.30
2023-05-19T02:05:45.838Z,13.30
2023-05-19T02:08:16.573Z,13.20
2023-05-19T02:10:49.869Z,13.20
2023-05-19T02:13:20.524Z,13.20
2023-05-19T02:15:48.751Z,13.20
2023-05-19T02:18:18.037Z,13.20
2023-05-19T02:20:45.211Z,13.10
2023-05-19T02:23:12.242Z,13.10
2023-05-19T02:25:40.370Z,13.00
2023-05-19T02:28:07.397Z,13.00
2023-05-19T02:30:34.654Z,13.00
2023-05-19T02:33:01.893Z,13.00
2023-05-19T02:35:29.132Z,12.90
2023-05-19T02:37:56.185Z,13.00
2023-05-19T02:40:23.390Z,12.90
2023-05-19T02:42:50.438Z,12.90
2023-05-19T02:45:17.714Z,12.90
2023-05-19T02:47:44.774Z,12.90
2023-05-19T02:50:11.911Z,12.90
2023-05-19T02:52:39.050Z,12.90
2023-05-19T02:55:06.653Z,12.90
2023-05-19T02:57:35.372Z,12.90
2023-05-19T03:00:03.681Z,12.90
2023-05-19T03:02:33.445Z,12.90
2023-05-19T03:05:01.705Z,12.90
2023-05-19T03:07:28.844Z,12.90
2023-05-19T03:09:55.894Z,12.90
2023-05-19T03:12:22.973Z,12.90
2023-05-19T03:14:50.168Z,12.90
2023-05-19T03:17:17.333Z,12.90
2023-05-19T03:19:44.566Z,12.80
2023-05-19T03:22:11.642Z,12.80
2023-05-19T03:24:39.041Z,12.80
2023-05-19T03:27:06.251Z,12.80
2023-05-19T03:29:33.554Z,12.80
2023-05-19T03:32:00.760Z,12.80
2023-05-19T03:34:27.863Z,12.80
2023-05-19T03:36:57.125Z,12.90
2023-05-19T03:39:24.340Z,12.90
2023-05-19T03:41:52.056Z,12.80
2023-05-19T03:44:19.129Z,12.70
2023-05-19T03:46:46.272Z,12.70
2023-05-19T03:49:33.317Z,12.60
2023-05-19T03:52:19.114Z,12.60
2023-05-19T03:54:57.825Z,12.60
2023-05-19T03:57:24.959Z,12.60
2023-05-19T03:59:53.837Z,12.50
2023-05-19T04:02:21.926Z,12.50
2023-05-19T04:04:49.083Z,12.40
2023-05-19T04:07:16.226Z,12.40
2023-05-19T04:09:43.456Z,12.40
2023-05-19T04:12:10.726Z,12.40
2023-05-19T04:14:37.715Z,12.40
2023-05-19T04:17:05.569Z,12.40
2023-05-19T04:19:33.704Z,12.40
2023-05-19T04:22:02.032Z,12.30
2023-05-19T04:24:29.863Z,12.30
2023-05-19T04:26:57.192Z,12.30
2023-05-19T04:29:24.352Z,12.20
2023-05-19T04:31:53.012Z,12.20
2023-05-19T04:34:20.512Z,12.20
2023-05-19T04:36:48.572Z,12.20
2023-05-19T04:39:17.179Z,12.20
2023-05-19T04:41:46.028Z,12.10
2023-05-19T04:44:18.477Z,12.10
2023-05-19T04:46:48.428Z,12.00
2023-05-19T04:49:15.546Z,12.00
2023-05-19T04:51:42.808Z,12.00
2023-05-19T04:54:10.302Z,12.00
2023-05-19T04:56:37.811Z,11.90
2023-05-19T04:59:05.329Z,11.90
2023-05-19T05:01:33.905Z,12.00
2023-05-19T05:04:02.713Z,12.00
2023-05-19T05:06:31.818Z,12.00
2023-05-19T05:09:00.136Z,12.10
2023-05-19T05:11:27.722Z,12.10
2023-05-19T05:13:58.400Z,12.20
2023-05-19T05:16:27.853Z,12.20
2023-05-19T05:18:56.073Z,12.30
2023-05-19T05:21:23.920Z,12.30
2023-05-19T05:23:52.420Z,12.40
2023-05-19T05:26:24.585Z,12.40
2023-05-19T05:28:55.691Z,12.50
2023-05-19T05:31:23.025Z,12.50
2023-05-19T05:33:50.412Z,12.50
2023-05-19T05:36:20.919Z,12.50
2023-05-19T05:38:48.214Z,12.50
2023-05-19T05:41:16.151Z,12.50
2023-05-19T05:43:43.363Z,12.50
2023-05-19T05:46:10.900Z,12.50
2023-05-19T05:48:38.354Z,12.50
2023-05-19T05:51:06.409Z,12.60
2023-05-19T05:53:37.459Z,12.50
2023-05-19T05:56:05.140Z,12.50
2023-05-19T05:58:40.876Z,12.50
2023-05-19T06:01:11.299Z,12.50
2023-05-19T06:03:46.435Z,12.50
2023-05-19T06:06:18.790Z,12.60
2023-05-19T06:08:45.879Z,12.60
2023-05-19T06:11:13.098Z,12.70
2023-05-19T06:13:41.620Z,12.70
2023-05-19T06:16:12.305Z,12.80
2023-05-19T06:18:43.749Z,12.80
2023-05-19T06:21:13.517Z,12.80
2023-05-19T06:23:41.844Z,12.80
2023-05-19T06:26:10.749Z,12.80
2023-05-19T06:28:38.097Z,12.80
2023-05-19T06:31:06.123Z,12.80
2023-05-19T06:33:43.758Z,12.90
2023-05-19T06:36:10.947Z,12.90
2023-05-19T06:38:40.027Z,13.00
2023-05-19T06:41:07.439Z,13.00
2023-05-19T06:43:36.135Z,13.10
2023-05-19T06:46:04.098Z,13.10
2023-05-19T06:48:33.192Z,13.20
2023-05-19T06:51:00.742Z,13.20
2023-05-19T06:53:27.955Z,13.20
2023-05-19T06:55:59.786Z,13.30
2023-05-19T06:58:31.359Z,13.30
2023-05-19T07:01:01.345Z,13.40
2023-05-19T07:03:34.170Z,13.40
2023-05-19T07:06:01.778Z,13.50
2023-05-19T07:08:29.230Z,13.50
2023-05-19T07:10:59.457Z,13.50
2023-05-19T07:13:27.537Z,13.60
2023-05-19T07:15:56.042Z,13.50
2023-05-19T07:18:23.431Z,13.60
2023-05-19T07:20:53.861Z,13.60
2023-05-19T07:23:21.381Z,13.70
2023-05-19T07:25:48.440Z,13.70
2023-05-19T07:28:15.544Z,13.70
2023-05-19T07:30:42.665Z,13.70
2023-05-19T07:33:09.855Z,13.70
2023-05-19T07:35:37.061Z,13.70
2023-05-19T07:38:04.448Z,13.60
2023-05-19T07:40:31.737Z,13.60
2023-05-19T07:42:59.080Z,13.60
2023-05-19T07:45:26.236Z,13.70
2023-05-19T07:47:54.361Z,13.70
2023-05-19T07:50:21.624Z,13.70
2023-05-19T07:52:48.814Z,13.70
2023-05-19T07:55:16.216Z,13.70
2023-05-19T07:57:43.414Z,13.70
2023-05-19T08:00:11.995Z,13.70
2023-05-19T08:02:39.197Z,13.70
2023-05-19T08:05:06.882Z,13.70
2023-05-19T08:07:33.984Z,13.70
2023-05-19T08:10:01.298Z,13.80
2023-05-19T08:12:28.633Z,13.80
2023-05-19T08:14:55.937Z,13.80
2023-05-19T08:17:23.328Z,13.80
2023-05-19T08:19:50.712Z,13.90
2023-05-19T08:22:17.847Z,13.90
2023-05-19T08:24:45.192Z,13.90
2023-05-19T08:27:12.280Z,13.90
2023-05-19T08:29:39.475Z,14.00
2023-05-19T08:32:06.724Z,14.00
2023-05-19T08:34:33.832Z,14.10
2023-05-19T08:37:01.955Z,14.20
2023-05-19T08:39:29.007Z,14.30
2023-05-19T08:41:56.310Z,14.30
2023-05-19T08:44:23.596Z,14.40
2023-05-19T08:46:54.343Z,14.40
2023-05-19T08:49:28.053Z,14.40
2023-05-19T08:52:05.484Z,14.50
2023-05-19T08:54:54.665Z,14.50
2023-05-19T08:57:24.022Z,14.60
2023-05-19T08:59:53.065Z,14.60
2023-05-19T09:02:22.127Z,14.60
2023-05-19T09:04:49.528Z,14.70
2023-05-19T09:07:16.809Z,14.70
2023-05-19T09:09:44.194Z,14.80
2023-05-19T09:12:13.443Z,14.80
2023-05-19T09:14:40.583Z,14.90
2023-05-19T09:17:07.826Z,15.00
2023-05-19T09:19:34.969Z,15.10
2023-05-19T09:22:06.404Z,15.10
2023-05-19T09:24:34.825Z,15.20
2023-05-19T09:27:02.296Z,15.30
2023-05-19T09:29:29.392Z,15.40
2023-05-19T09:32:00.984Z,15.40
2023-05-19T09:34:28.340Z,15.50
2023-05-19T09:36:55.764Z,15.60
2023-05-19T09:39:24.203Z,15.70
2023-05-19T09:41:56.213Z,15.80
2023-05-19T09:44:24.858Z,15.90
2023-05-19T09:46:53.266Z,15.90
2023-05-19T09:49:25.418Z,16.00
2023-05-19T09:51:56.833Z,16.10
2023-05-19T09:54:25.088Z,16.20
2023-05-19T09:56:59.683Z,16.20
2023-05-19T09:59:29.925Z,16.20
2023-05-19T10:02:00.198Z,16.30
2023-05-19T10:04:28.907Z,16.30
2023-05-19T10:07:01.221Z,16.30
2023-05-19T10:09:30.055Z,16.30
2023-05-19T10:11:58.363Z,16.30
2023-05-19T10:14:27.546Z,16.30
2023-05-19T10:16:56.517Z,16.40
2023-05-19T10:19:29.227Z,16.40
2023-05-19T10:21:57.121Z,16.40
2023-05-19T10:24:24.290Z,16.40
2023-05-19T10:27:17.465Z,16.40
2023-05-19T10:29:50.001Z,16.40
2023-05-19T10:32:30.521Z,16.40
2023-05-19T10:34:57.881Z,16.40
2023-05-19T10:37:51.524Z,16.30
2023-05-19T10:40:25.121Z,16.30
2023-05-19T10:43:31.205Z,16.30
2023-05-19T10:45:58.585Z,16.30
2023-05-19T10:48:25.791Z,16.40
2023-05-19T10:50:57.166Z,16.30
2023-05-19T10:53:34.403Z,16.40
2023-05-19T10:56:07.146Z,16.50
2023-05-19T10:58:39.356Z,16.50
2023-05-19T11:01:13.592Z,16.50
2023-05-19T11:03:52.290Z,16.50
2023-05-19T11:06:30.004Z,16.50
2023-05-19T11:09:07.507Z,16.50
2023-05-19T11:11:51.100Z,16.50
2023-05-19T11:14:23.382Z,16.60
2023-05-19T11:16:52.166Z,16.60
2023-05-19T11:19:26.607Z,16.60
2023-05-19T11:21:57.581Z,16.60
2023-05-19T11:24:33.910Z,16.70
2023-05-19T11:27:20.759Z,16.70
2023-05-19T11:29:49.149Z,16.70
2023-05-19T11:32:16.558Z,16.80
2023-05-19T11:34:45.538Z,16.80
2023-05-19T11:37:12.748Z,16.90
2023-05-19T11:39:40.707Z,17.10
2023-05-19T11:42:11.409Z,17.20
2023-05-19T11:44:38.682Z,17.30
2023-05-19T11:47:06.298Z,17.40
2023-05-19T11:49:33.672Z,17.40
2023-05-19T11:52:04.144Z,17.40
2023-05-19T11:54:32.978Z,17.50
2023-05-19T11:57:04.641Z,17.50
2023-05-19T11:59:36.553Z,17.50
2023-05-19T12:02:14.031Z,17.40
2023-05-19T12:04:41.393Z,17.40
2023-05-19T12:07:08.776Z,17.40
2023-05-19T12:09:37.243Z,17.50
2023-05-19T12:12:05.127Z,17.50
2023-05-19T12:14:32.286Z,17.50
2023-05-19T12:16:59.565Z,17.50
2023-05-19T12:19:27.201Z,17.60
2023-05-19T12:21:54.380Z,17.60
2023-05-19T12:24:22.348Z,17.60
2023-05-19T12:26:50.423Z,17.70
2023-05-19T12:29:17.729Z,17.80
2023-05-19T12:31:47.054Z,17.80
2023-05-19T12:34:14.359Z,17.80
2023-05-19T12:36:41.842Z,17.90
2023-05-19T12:39:09.639Z,17.90
2023-05-19T12:41:37.628Z,18.00
2023-05-19T12:44:15.309Z,18.00
2023-05-19T12:46:42.614Z,18.10
2023-05-19T12:49:10.008Z,18.10
2023-05-19T12:51:37.500Z,18.20
2023-05-19T12:54:05.055Z,18.30
2023-05-19T12:56:32.237Z,18.30
2023-05-19T12:59:01.132Z,18.30
2023-05-19T13:01:30.568Z,18.30
2023-05-19T13:03:57.796Z,18.40
2023-05-19T13:06:24.971Z,18.40
2023-05-19T13:08:52.027Z,18.40
2023-05-19T13:11:19.249Z,18.50
2023-05-19T13:13:46.399Z,18.50
2023-05-19T13:16:13.612Z,18.50
2023-05-19T13:18:40.825Z,18.50
2023-05-19T13:21:07.939Z,18.60
2023-05-19T13:23:35.024Z,18.60
2023-05-19T13:26:04.961Z,18.60
2023-05-19T13:28:32.151Z,18.60
2023-05-19T13:30:59.622Z,18.60
2023-05-19T13:33:26.720Z,18.70
2023-05-19T13:35:54.154Z,18.70
2023-05-19T13:38:21.260Z,18.70
2023-05-19T13:40:48.293Z,18.70
2023-05-19T13:43:15.378Z,18.60
2023-05-19T13:45:44.562Z,18.60
2023-05-19T13:48:12.288Z,18.60
2023-05-19T13:50:39.475Z,18.70
2023-05-19T13:53:06.670Z,18.70
2023-05-19T13:55:33.802Z,18.70
2023-05-19T13:58:01.036Z,18.80
2023-05-19T14:00:28.593Z,18.80
2023-05-19T14:02:56.057Z,18.90
2023-05-19T14:05:23.216Z,18.90
2023-05-19T14:07:50.353Z,18.90
2023-05-19T14:10:17.763Z,18.90
2023-05-19T14:13:08.025Z,18.90
2023-05-19T14:15:37.590Z,18.90
2023-05-19T14:18:05.563Z,18.80
2023-05-19T14:20:34.448Z,18.80
2023-05-19T14:23:01.649Z,18.80
2023-05-19T14:25:28.741Z,18.70
2023-05-19T14:27:55.865Z,18.70
2023-05-19T14:30:22.881Z,18.70
2023-05-19T14:32:50.068Z,18.70
2023-05-19T14:35:17.242Z,18.70
2023-05-19T14:37:44.368Z,18.70
2023-05-19T14:40:12.157Z,18.70
2023-05-19T14:42:39.268Z,18.80
2023-05-19T14:45:06.874Z,18.90
2023-05-19T14:47:33.987Z,19.00
2023-05-19T14:50:01.063Z,19.00
2023-05-19T14:52:28.168Z,19.00
2023-05-19T14:54:56.190Z,18.90
2023-05-19T14:57:23.349Z,18.90
2023-05-19T14:59:50.599Z,18.90
2023-05-19T15:02:17.777Z,18.90
2023-05-19T15:04:44.824Z,18.90
2023-05-19T15:07:12.050Z,18.90
2023-05-19T15:09:39.633Z,18.80
2023-05-19T15:12:06.723Z,18.70
2023-05-19T15:14:33.762Z,18.70
2023-05-19T15:17:00.867Z,18.70
2023-05-19T15:19:28.057Z,18.70
2023-05-19T15:21:55.315Z,18.70
2023-05-19T15:24:22.778Z,18.90
2023-05-19T15:26:49.991Z,18.90
2023-05-19T15:29:17.023Z,18.90
2023-05-19T15:31:44.146Z,18.90
2023-05-19T15:34:11.236Z,18.90
2023-05-19T15:36:38.387Z,18.90
2023-05-19T15:39:06.842Z,19.00
2023-05-19T15:41:33.967Z,19.00
2023-05-19T15:44:02.340Z,19.10
2023-05-19T15:46:30.559Z,19.10
2023-05-19T15:48:57.737Z,19.00
2023-05-19T15:51:25.116Z,19.00
2023-05-19T15:53:52.647Z,19.00
2023-05-19T15:56:19.777Z,18.90
2023-05-19T15:58:46.923Z,18.90
2023-05-19T16:01:15.003Z,18.90
2023-05-19T16:03:42.511Z,18.80
2023-05-19T16:06:09.869Z,18.90
2023-05-19T16:08:39.622Z,18.90
2023-05-19T16:11:06.910Z,18.90
2023-05-19T16:13:34.030Z,18.90
2023-05-19T16:16:01.558Z,18.80
2023-05-19T16:18:31.642Z,18.80
2023-05-19T16:20:58.705Z,18.80
2023-05-19T16:23:25.783Z,18.80
2023-05-19T16:25:54.662Z,18.90
2023-05-19T16:28:23.907Z,18.90
2023-05-19T16:30:51.965Z,18.90
2023-05-19T16:33:18.988Z,18.90
2023-05-19T16:35:46.224Z,18.90
2023-05-19T16:38:13.298Z,18.90
2023-05-19T16:40:40.379Z,19.00
2023-05-19T16:43:07.392Z,19.00
2023-05-19T16:45:34.575Z,19.10
2023-05-19T16:48:01.761Z,19.20
2023-05-19T16:50:29.005Z,19.20
2023-05-19T16:52:56.225Z,19.30
2023-05-19T16:55:25.359Z,19.40
2023-05-19T16:57:52.419Z,19.50
2023-05-19T17:00:19.943Z,19.50
2023-05-19T17:02:47.251Z,19.40
2023-05-19T17:05:14.422Z,19.50
2023-05-19T17:07:41.484Z,19.50
2023-05-19T17:10:09.216Z,19.60
2023-05-19T17:12:36.964Z,19.60
2023-05-19T17:15:04.571Z,19.50
2023-05-19T17:17:31.694Z,19.50
2023-05-19T17:19:58.933Z,19.40
2023-05-19T17:22:27.374Z,19.40
2023-05-19T17:24:55.395Z,19.40
2023-05-19T17:27:22.421Z,19.30
2023-05-19T17:29:49.589Z,19.40
2023-05-19T17:32:16.767Z,19.40
2023-05-19T17:34:43.950Z,19.40
2023-05-19T17:37:11.114Z,19.40
2023-05-19T17:39:38.171Z,19.40
2023-05-19T17:42:06.001Z,19.50
2023-05-19T17:44:33.063Z,19.50
2023-05-19T17:47:01.640Z,19.50
2023-05-19T17:49:28.705Z,19.60
2023-05-19T17:51:56.103Z,19.70
2023-05-19T17:54:26.176Z,19.80
2023-05-19T17:56:55.414Z,19.90
2023-05-19T17:59:22.724Z,20.10
2023-05-19T18:01:50.008Z,20.20
2023-05-19T18:04:17.529Z,20.20
2023-05-19T18:06:47.960Z,20.20
2023-05-19T18:09:18.966Z,20.20
2023-05-19T18:11:46.971Z,20.20
2023-05-19T18:14:14.054Z,20.40
2023-05-19T18:16:41.236Z,20.50
2023-05-19T18:19:08.530Z,20.50
2023-05-19T18:21:35.588Z,20.60
2023-05-19T18:24:04.363Z,20.60
2023-05-19T18:26:33.209Z,20.70
2023-05-19T18:29:02.866Z,20.70
2023-05-19T18:31:30.071Z,20.70
2023-05-19T18:33:57.156Z,20.50
2023-05-19T18:37:15.196Z,20.40
2023-05-19T18:39:42.304Z,20.10
2023-05-19T18:42:09.411Z,19.80
2023-05-19T18:44:36.440Z,19.50
2023-05-19T18:47:03.554Z,19.30
2023-05-19T18:49:30.916Z,19.00
2023-05-19T18:51:57.983Z,18.80
2023-05-19T18:54:25.178Z,18.70
2023-05-19T18:56:52.217Z,18.50
2023-05-19T18:59:19.304Z,18.30
2023-05-19T19:01:46.447Z,18.10
2023-05-19T19:04:14.918Z,18.00
2023-05-19T19:06:43.823Z,17.80
2023-05-19T19:09:11.300Z,17.80
2023-05-19T19:11:38.566Z,17.60
2023-05-19T19:14:05.776Z,17.50
2023-05-19T19:16:33.121Z,17.40
2023-05-19T19:19:00.434Z,17.30
2023-05-19T19:21:29.714Z,17.20
2023-05-19T19:23:57.809Z,17.20
2023-05-19T19:26:26.931Z,17.10
2023-05-19T19:28:54.115Z,17.00
2023-05-19T19:31:21.365Z,16.90
2023-05-19T19:33:49.835Z,16.80
2023-05-19T19:36:16.824Z,16.60
2023-05-19T19:38:43.930Z,16.40
2023-05-19T19:41:11.061Z,16.30
2023-05-19T19:43:38.202Z,16.20
2023-05-19T19:46:07.163Z,16.20
2023-05-19T19:48:34.292Z,16.10
2023-05-19T19:51:01.315Z,16.10
2023-05-19T19:53:28.502Z,16.10
2023-05-19T19:56:02.825Z,16.00
2023-05-19T19:58:30.046Z,15.90
2023-05-19T20:00:58.421Z,15.90
2023-05-19T20:03:26.118Z,15.90
2023-05-19T20:05:54.816Z,15.80
2023-05-19T20:08:22.184Z,15.70
2023-05-19T20:10:49.463Z,15.70
2023-05-19T20:13:16.943Z,15.60
2023-05-19T20:15:45.075Z,15.50
2023-05-19T20:18:13.356Z,15.50
2023-05-19T20:20:41.133Z,15.40
2023-05-19T20:23:08.894Z,15.30
2023-05-19T20:25:54.479Z,15.30
2023-05-19T20:28:29.102Z,15.30
2023-05-19T20:30:56.229Z,15.20
2023-05-19T20:33:23.385Z,15.20
2023-05-19T20:35:50.361Z,15.10
2023-05-19T20:38:17.429Z,15.00
2023-05-19T20:40:44.447Z,15.00
2023-05-19T20:43:11.472Z,15.00
2023-05-19T20:45:38.706Z,14.90
2023-05-19T20:48:06.374Z,14.90
2023-05-19T20:50:33.703Z,14.80
2023-05-19T20:53:01.132Z,14.80
2023-05-19T20:55:28.329Z,14.70
2023-05-19T20:57:55.475Z,14.70
2023-05-19T21:00:22.670Z,14.70
2023-05-19T21:02:49.853Z,14.60
2023-05-19T21:05:16.869Z,14.60
2023-05-19T21:07:44.105Z,14.60
2023-05-19T21:10:13.814Z,14.60
2023-05-19T21:12:40.966Z,14.60
2023-05-19T21:15:08.652Z,14.60
2023-05-19T21:17:35.893Z,14.60
2023-05-19T21:20:03.808Z,14.50
2023-05-19T21:22:31.027Z,14.50
2023-05-19T21:24:58.168Z,14.50
2023-05-19T21:27:25.638Z,14.50
2023-05-19T21:29:53.826Z,14.40
2023-05-19T21:32:21.633Z,14.40
2023-05-19T21:34:48.897Z,14.40
2023-05-19T21:37:17.392Z,14.40
2023-05-19T21:39:44.959Z,14.40
2023-05-19T21:42:12.442Z,14.40
2023-05-19T21:44:39.595Z,14.30
2023-05-19T21:47:07.121Z,14.30
2023-05-19T21:49:34.208Z,14.30
2023-05-19T21:52:01.305Z,14.30
2023-05-19T21:54:28.386Z,14.20
2023-05-19T21:56:55.483Z,14.20
2023-05-19T21:59:24.758Z,14.20
2023-05-19T22:01:52.487Z,14.20
2023-05-19T22:04:21.267Z,14.20
2023-05-19T22:06:48.465Z,14.20
2023-05-19T22:09:15.551Z,14.20
2023-05-19T22:11:42.840Z,14.20
2023-05-19T22:14:09.937Z,14.20
2023-05-19T22:16:37.178Z,14.10
2023-05-19T22:19:04.299Z,14.10
2023-05-19T22:21:32.039Z,14.10
2023-05-19T22:23:59.077Z,14.10
2023-05-19T22:26:26.179Z,14.10
2023-05-19T22:28:53.492Z,14.10
2023-05-19T22:31:20.756Z,14.10
2023-05-19T22:33:48.077Z,14.10
2023-05-19T22:36:16.293Z,14.10
2023-05-19T22:38:43.372Z,14.10
2023-05-19T22:41:10.552Z,14.10
2023-05-19T22:43:38.020Z,14.10
2023-05-19T22:46:05.504Z,14.10
2023-05-19T22:48:32.584Z,14.00
2023-05-19T22:50:59.766Z,14.00
2023-05-19T22:53:26.833Z,14.00
2023-05-19T22:55:53.949Z,14.00
2023-05-19T22:58:21.028Z,13.90
2023-05-19T23:00:48.298Z,13.90
2023-05-19T23:03:15.722Z,13.90
2023-05-19T23:05:43.205Z,13.90
2023-05-19T23:08:10.324Z,13.90
2023-05-19T23:10:37.960Z,13.90
2023-05-19T23:13:05.027Z,13.90
2023-05-19T23:15:32.646Z,13.80
2023-05-19T23:18:01.396Z,13.70
2023-05-19T23:20:28.564Z,13.80
2023-05-19T23:22:55.711Z,13.80
2023-05-19T23:25:22.828Z,13.70
2023-05-19T23:27:49.837Z,13.70
2023-05-19T23:30:16.973Z,13.70
2023-05-19T23:32:44.171Z,13.80
2023-05-19T23:35:16.749Z,13.80
2023-05-19T23:37:44.035Z,13.80
2023-05-19T23:40:11.672Z,13.80
2023-05-19T23:42:38.921Z,13.80
2023-05-19T23:45:06.473Z,13.80
2023-05-19T23:47:33.607Z,13.80
2023-05-19T23:50:00.666Z,13.80
2023-05-19T23:52:27.772Z,13.80
2023-05-19T23:54:54.791Z,13.80
2023-05-19T23:57:21.866Z,13.80
2023-05-19T23:59:48.937Z,13.80
